Time;durP1;ratioP1;P1;durP2;ratioP2;P2;SDS_P1;SDS_P2;PMS_P1;PMS_P2;Temp;Humidity;BMP_temperature;BMP_pressure;BME280_temperature;BME280_humidity;BME280_pressure;Samples;Min_cycle;Max_cycle;Signal;HPM_P1;HPM_P2
2023/02/26 00:01:10;;;;;;;3.75;0.70;;;;;;;-0.58;99.36;98320.66;5001375;28;20029;-73
2023/02/26 00:03:35;;;;;;;4.13;0.88;;;;;;;-0.57;99.64;98366.84;5013290;28;20042;-73
2023/02/26 00:06:01;;;;;;;2.43;0.80;;;;;;;-0.54;98.91;98314.97;5000967;28;20091;-73
2023/02/26 00:08:26;;;;;;;1.00;0.30;;;;;;;-0.59;98.53;98275.25;4997390;28;20294;-73
2023/02/26 00:10:53;;;;;;;2.63;0.70;;;;;;;-0.66;98.10;98233.13;5011724;28;20372;-73
2023/02/26 00:13:19;;;;;;;1.38;0.40;;;;;;;-0.53;98.26;98282.53;4996274;28;20036;-73
2023/02/26 00:15:46;;;;;;;0.73;0.30;;;;;;;-0.57;98.17;98298.69;5002157;28;20088;-73
2023/02/26 00:18:14;;;;;;;1.30;0.65;;;;;;;-0.70;98.27;98281.56;5000884;28;20072;-73
2023/02/26 00:20:42;;;;;;;2.45;0.47;;;;;;;-0.73;99.03;98344.75;4999925;28;20084;-73
2023/02/26 00:23:13;;;;;;;2.33;0.30;;;;;;;-0.60;99.45;98483.28;5003485;28;20442;-73
2023/02/26 00:25:38;;;;;;;1.50;0.60;;;;;;;-0.63;99.06;98436.41;4998067;28;20038;-73
2023/02/26 00:28:04;;;;;;;4.10;0.77;;;;;;;-0.67;99.75;98513.66;5001296;28;20043;-73
2023/02/26 00:30:29;;;;;;;1.75;0.75;;;;;;;-0.74;100.00;98551.91;4992386;28;20050;-73
2023/02/26 00:32:55;;;;;;;3.47;0.50;;;;;;;-0.69;100.00;98678.91;5000626;28;20033;-73
2023/02/26 00:35:21;;;;;;;1.17;0.43;;;;;;;-0.73;100.00;98739.59;4997970;28;20507;-77
2023/02/26 00:37:56;;;;;;;8.82;1.55;;;;;;;-0.69;100.00;98824.84;5015772;28;20045;-73
2023/02/26 00:40:33;;;;;;;3.00;0.80;;;;;;;-0.86;100.00;98818.50;5000403;28;20046;-73
2023/02/26 00:43:00;;;;;;;6.75;0.77;;;;;;;-0.81;100.00;98909.81;5015020;28;20123;-73
2023/02/26 00:45:26;;;;;;;1.33;0.60;;;;;;;-0.87;100.00;98948.69;5011282;28;20034;-73
2023/02/26 00:48:16;;;;;;;4.65;0.60;;;;;;;-0.85;100.00;98993.91;5011509;28;20129;-73
2023/02/26 00:50:51;;;;;;;1.58;0.60;;;;;;;-0.91;100.00;98978.72;5007640;28;20042;-73
2023/02/26 00:53:24;;;;;;;1.47;0.40;;;;;;;-0.86;100.00;98966.03;5000865;28;20037;-73
2023/02/26 00:55:49;;;;;;;4.00;0.45;;;;;;;-0.93;100.00;98938.72;5013333;28;20616;-73
2023/02/26 00:58:14;;;;;;;3.42;1.13;;;;;;;-1.02;100.00;98976.19;4998211;28;20079;-73
2023/02/26 01:00:40;;;;;;;1.90;0.75;;;;;;;-0.98;100.00;99042.25;4996900;28;20430;-73
2023/02/26 01:03:05;;;;;;;2.40;0.63;;;;;;;-1.02;100.00;99007.63;4998419;28;20581;-73
2023/02/26 01:05:31;;;;;;;0.93;0.60;;;;;;;-1.04;100.00;99019.19;4997828;28;20448;-73
2023/02/26 01:08:09;;;;;;;6.47;0.95;;;;;;;-1.10;100.00;99036.25;4991736;28;20084;-73
2023/02/26 01:10:35;;;;;;;1.70;0.57;;;;;;;-1.16;100.00;99060.34;4997500;28;20042;-73
2023/02/26 01:13:00;;;;;;;2.35;0.60;;;;;;;-1.18;100.00;99091.91;4998632;28;20100;-73
2023/02/26 01:15:26;;;;;;;4.55;0.50;;;;;;;-1.20;100.00;99043.22;4993528;28;20446;-73
2023/02/26 01:18:00;;;;;;;4.35;0.50;;;;;;;-1.17;100.00;99067.38;4997727;28;20034;-73
2023/02/26 01:20:29;;;;;;;3.20;0.75;;;;;;;-1.30;100.00;99036.16;5017171;28;20041;-73
2023/02/26 01:23:17;;;;;;;2.78;1.02;;;;;;;-1.33;100.00;99082.72;5020332;28;20136;-73
2023/02/26 01:25:57;;;;;;;3.70;0.68;;;;;;;-1.35;100.00;99106.41;4998831;28;20122;-73
2023/02/26 01:28:24;;;;;;;1.27;0.40;;;;;;;-1.38;100.00;99093.56;5018377;28;20043;-73
2023/02/26 01:30:53;;;;;;;4.28;0.70;;;;;;;-1.43;100.00;99166.41;5008320;28;20072;-73
2023/02/26 01:33:42;;;;;;;1.27;0.50;;;;;;;-1.33;100.00;99180.41;5000461;28;20515;-73
2023/02/26 01:36:14;;;;;;;2.50;0.63;;;;;;;-1.31;100.00;99182.94;5004057;28;20056;-73
2023/02/26 01:38:57;;;;;;;3.55;0.63;;;;;;;-1.37;100.00;99165.09;5000237;28;20404;-73
2023/02/26 01:41:56;;;;;;;4.55;0.75;;;;;;;-1.36;100.00;99162.34;5017975;28;20038;-73
2023/02/26 01:44:24;;;;;;;4.93;0.80;;;;;;;-1.29;100.00;99178.38;5008443;28;20048;-73
2023/02/26 01:47:02;;;;;;;1.70;0.57;;;;;;;-1.31;100.00;99194.22;5005556;28;20034;-73
2023/02/26 01:49:29;;;;;;;1.58;0.50;;;;;;;-1.39;100.00;99157.34;5014177;28;20038;-73
2023/02/26 01:51:54;;;;;;;;;;;;;;;-1.44;100.00;99182.25;5003380;28;20033;-71
2023/02/26 01:54:22;;;;;;;2.35;0.65;;;;;;;-1.46;100.00;99215.56;5000876;28;19918;-73
2023/02/26 01:56:54;;;;;;;2.85;0.60;;;;;;;-1.48;100.00;99184.28;5020657;28;20028;-73
2023/02/26 01:59:23;;;;;;;8.95;0.95;;;;;;;-1.52;100.00;99106.97;5000256;28;20435;-73
2023/02/26 02:01:50;;;;;;;1.98;0.70;;;;;;;-1.61;100.00;99097.25;4999028;28;20046;-72
2023/02/26 02:04:16;;;;;;;3.70;0.47;;;;;;;-1.63;100.00;99128.75;5001010;28;20046;-72
2023/02/26 02:06:42;;;;;;;2.70;0.50;;;;;;;-1.60;100.00;99117.22;5006262;28;20032;-72
2023/02/26 02:09:08;;;;;;;2.20;0.63;;;;;;;-1.59;100.00;99059.53;5007605;28;20030;-73
2023/02/26 02:11:38;;;;;;;;;;;;;;;-1.61;100.00;98984.72;5006529;28;20117;-73
2023/02/26 02:14:29;;;;;;;0.77;0.40;;;;;;;-1.54;100.00;98985.88;4990822;28;20298;-73
2023/02/26 02:17:16;;;;;;;2.03;0.38;;;;;;;-1.56;100.00;98888.31;5000218;28;20136;-73
2023/02/26 02:20:14;;;;;;;1.67;0.35;;;;;;;-1.55;100.00;98780.88;5000882;28;20037;-72
2023/02/26 02:22:51;;;;;;;3.60;0.93;;;;;;;-1.42;100.00;98766.72;4963954;28;20050;-72
2023/02/26 02:25:23;;;;;;;1.15;0.25;;;;;;;-1.48;100.00;98597.94;5017368;28;20056;-72
2023/02/26 02:28:17;;;;;;;2.38;0.60;;;;;;;-1.46;100.00;98550.72;5001474;28;20042;-72
2023/02/26 02:30:55;;;;;;;6.00;0.40;;;;;;;-1.49;98.94;98452.38;5002548;28;20038;-72
2023/02/26 02:33:25;;;;;;;2.03;0.43;;;;;;;-1.44;98.51;98451.94;5015258;28;20046;-72
2023/02/26 02:36:03;;;;;;;3.03;0.98;;;;;;;-1.56;98.19;98376.22;5007307;28;20038;-73
2023/02/26 02:38:45;;;;;;;5.53;0.47;;;;;;;-1.63;98.41;98410.94;5013608;28;20041;-72
2023/02/26 02:41:18;;;;;;;0.95;0.30;;;;;;;-1.60;98.46;98431.59;5003585;28;20436;-73
2023/02/26 02:43:45;;;;;;;4.07;0.60;;;;;;;-1.73;99.07;98448.44;4984403;28;20030;-72
2023/02/26 02:46:20;;;;;;;3.90;0.63;;;;;;;-1.64;99.27;98529.66;4984888;28;20026;-72
2023/02/26 02:49:12;;;;;;;1.38;0.43;;;;;;;-1.62;99.45;98566.97;5000539;28;20042;-73
2023/02/26 02:51:43;;;;;;;6.90;0.45;;;;;;;-1.54;98.88;98540.94;5003014;28;20294;-72
2023/02/26 02:54:15;;;;;;;1.90;0.40;;;;;;;-1.53;98.87;98545.19;4996632;28;20073;-73
2023/02/26 02:56:55;;;;;;;6.07;0.50;;;;;;;-1.66;98.89;98510.63;5005615;28;20065;-73
2023/02/26 02:59:32;;;;;;;2.20;0.40;;;;;;;-1.74;98.96;98520.00;4999503;28;20034;-72
2023/02/26 03:02:25;;;;;;;1.55;0.32;;;;;;;-1.71;99.53;98589.53;5002007;28;20033;-72
2023/02/26 03:04:51;;;;;;;0.88;0.43;;;;;;;-1.72;99.83;98627.97;5000396;28;20103;-72
2023/02/26 03:07:16;;;;;;;1.02;0.47;;;;;;;-1.62;99.20;98601.00;5000047;28;20487;-72
2023/02/26 03:09:43;;;;;;;2.80;0.50;;;;;;;-1.56;98.66;98608.31;4997564;28;20092;-73
2023/02/26 03:12:10;;;;;;;0.57;0.17;;;;;;;-1.59;98.38;98553.59;5006310;28;20030;-73
2023/02/26 03:14:37;;;;;;;1.00;0.73;;;;;;;-1.57;98.02;98536.81;5007183;28;20080;-72
2023/02/26 03:17:33;;;;;;;3.60;0.93;;;;;;;-1.59;97.01;98460.25;5007167;28;20034;-72
2023/02/26 03:20:12;;;;;;;3.70;0.82;;;;;;;-1.53;96.24;98385.56;5013798;28;20024;-72
2023/02/26 03:22:59;;;;;;;1.95;0.57;;;;;;;-1.42;95.50;98345.31;5013524;28;20038;-73
2023/02/26 03:25:27;;;;;;;1.35;0.45;;;;;;;-1.49;94.09;98172.34;5018794;28;20034;-72
2023/02/26 03:28:06;;;;;;;1.02;0.35;;;;;;;-1.50;93.56;98102.63;5015511;28;20532;-73
2023/02/26 03:30:46;;;;;;;1.17;0.30;;;;;;;-1.43;92.60;98032.19;4987427;28;20041;-72
2023/02/26 03:33:18;;;;;;;1.63;0.88;;;;;;;-1.41;92.30;98022.41;4996173;28;20494;-73
2023/02/26 03:35:50;;;;;;;1.40;0.30;;;;;;;-1.44;91.55;97931.94;4986601;28;20064;-72
2023/02/26 03:38:39;;;;;;;3.60;0.50;;;;;;;-1.54;91.15;97869.25;5004025;28;20037;-73
2023/02/26 03:41:10;;;;;;;0.68;0.55;;;;;;;-1.54;91.11;97877.09;4986225;28;20177;-72
2023/02/26 03:43:48;;;;;;;1.15;0.30;;;;;;;-1.52;91.68;97973.78;4999343;28;20145;-72
2023/02/26 03:46:19;;;;;;;3.08;0.35;;;;;;;-1.49;91.57;97994.38;4987027;28;20042;-72
2023/02/26 03:48:50;;;;;;;1.50;0.43;;;;;;;-1.41;90.86;97960.41;5013654;28;20030;-73
2023/02/26 03:51:17;;;;;;;3.00;1.33;;;;;;;-1.39;91.05;97971.53;5001926;28;20065;-72
2023/02/26 03:54:09;;;;;;;0.28;0.20;;;;;;;-1.47;91.21;97995.06;4995384;28;20017;-72
2023/02/26 03:56:46;;;;;;;3.15;0.32;;;;;;;-1.39;91.40;98031.75;5014301;28;20034;-72
2023/02/26 03:59:43;;;;;;;1.13;0.35;;;;;;;-1.51;90.67;97965.75;4953709;28;20410;-72
2023/02/26 04:02:44;;;;;;;3.13;1.17;;;;;;;-1.52;90.68;97940.56;4954228;28;20384;-73
2023/02/26 04:05:18;;;;;;;2.45;0.40;;;;;;;-1.60;91.00;97979.75;4961303;28;20034;-72
2023/02/26 04:07:47;;;;;;;2.83;0.40;;;;;;;-1.57;91.15;98028.34;4963441;28;20070;-73
2023/02/26 04:10:19;;;;;;;0.73;0.30;;;;;;;-1.64;91.61;98061.31;4967752;28;20067;-72
2023/02/26 04:12:45;;;;;;;2.75;1.48;;;;;;;-1.68;91.96;98109.69;4939461;28;20542;-73
2023/02/26 04:15:10;;;;;;;1.65;0.45;;;;;;;-1.83;92.88;98186.03;4949375;28;20043;-72
2023/02/26 04:17:36;;;;;;;1.38;0.65;;;;;;;-1.83;92.89;98214.81;4942338;28;20043;-72
2023/02/26 04:20:06;;;;;;;1.42;0.40;;;;;;;-1.91;93.55;98261.78;4967026;28;20160;-73
2023/02/26 04:22:33;;;;;;;3.53;0.50;;;;;;;-1.98;94.05;98319.06;4943314;28;20495;-72
2023/02/26 04:24:58;;;;;;;5.82;0.60;;;;;;;-2.09;94.44;98341.94;4948941;28;20117;-73
2023/02/26 04:27:24;;;;;;;2.88;0.93;;;;;;;-2.04;95.41;98471.28;4946294;28;20097;-73
2023/02/26 04:29:49;;;;;;;2.97;0.68;;;;;;;-1.99;95.77;98541.47;4950351;28;20509;-73
2023/02/26 04:32:15;;;;;;;2.88;0.90;;;;;;;-2.02;96.37;98581.81;4965196;28;20552;-73
2023/02/26 04:34:40;;;;;;;1.40;0.50;;;;;;;-2.03;96.89;98624.63;4952052;28;20495;-72
2023/02/26 04:37:06;;;;;;;3.13;0.40;;;;;;;-2.08;97.33;98657.34;5003571;28;20470;-72
2023/02/26 04:39:31;;;;;;;2.22;0.52;;;;;;;-1.92;97.96;98814.59;4992162;28;20093;-72
2023/02/26 04:41:57;;;;;;;2.78;0.57;;;;;;;-1.86;98.04;98819.31;5004796;28;20542;-72
2023/02/26 04:44:22;;;;;;;1.13;0.30;;;;;;;-1.82;98.49;98853.91;5013365;28;20041;-73
2023/02/26 04:46:48;;;;;;;5.78;0.68;;;;;;;-1.88;99.05;98870.09;4996364;28;20460;-73
2023/02/26 04:49:13;;;;;;;2.22;0.63;;;;;;;-1.88;99.49;98952.03;4998385;28;20054;-73
2023/02/26 04:51:42;;;;;;;5.30;0.60;;;;;;;-1.90;100.00;98990.56;5005560;28;20069;-73
2023/02/26 04:54:07;;;;;;;1.02;0.40;;;;;;;-1.92;100.00;99029.09;4978366;28;20069;-72
2023/02/26 04:56:33;;;;;;;3.33;0.60;;;;;;;-1.95;100.00;99074.63;5002495;28;20033;-72
2023/02/26 04:58:59;;;;;;;2.00;0.45;;;;;;;-1.94;100.00;99120.78;5002988;28;20059;-72
2023/02/26 05:01:29;;;;;;;0.25;0.17;;;;;;;-1.91;100.00;99164.16;4996373;28;20038;-73
2023/02/26 05:03:56;;;;;;;3.17;1.17;;;;;;;-1.99;100.00;99150.84;5002479;28;20544;-72
2023/02/26 05:06:22;;;;;;;1.33;0.38;;;;;;;-1.99;100.00;99222.31;5009267;28;20030;-73
2023/02/26 05:08:47;;;;;;;0.77;0.40;;;;;;;-2.03;100.00;99267.97;4994182;28;20046;-73
2023/02/26 05:11:13;;;;;;;3.40;0.50;;;;;;;-1.99;100.00;99326.09;5001686;28;20546;-72
2023/02/26 05:13:38;;;;;;;1.75;0.40;;;;;;;-2.07;100.00;99357.25;4997756;28;20026;-73
2023/02/26 05:16:04;;;;;;;1.77;1.02;;;;;;;-2.02;100.00;99415.25;5005062;28;20420;-73
2023/02/26 05:18:31;;;;;;;2.30;0.70;;;;;;;-2.06;100.00;99414.66;5009479;28;20506;-73
2023/02/26 05:20:57;;;;;;;2.50;0.98;;;;;;;-2.07;100.00;99435.69;5009516;28;20029;-72
2023/02/26 05:23:23;;;;;;;2.70;0.32;;;;;;;-2.03;100.00;99463.31;5000167;28;20422;-72
2023/02/26 05:25:48;;;;;;;3.10;0.50;;;;;;;-2.06;100.00;99477.44;5007952;28;20031;-72
2023/02/26 05:28:14;;;;;;;;;;;;;;;-1.98;100.00;99516.09;5003789;28;20131;-73
2023/02/26 05:30:40;;;;;;;3.90;0.68;;;;;;;-2.02;100.00;99553.88;5004318;28;19914;-72
2023/02/26 05:33:05;;;;;;;1.48;0.60;;;;;;;-2.12;100.00;99572.84;5005701;28;20053;-73
2023/02/26 05:35:31;;;;;;;7.93;0.70;;;;;;;-2.13;100.00;99609.59;4998680;28;20050;-72
2023/02/26 05:37:56;;;;;;;0.73;0.40;;;;;;;-2.09;100.00;99680.81;5000987;28;20028;-72
2023/02/26 05:40:23;;;;;;;1.92;0.40;;;;;;;-2.04;100.00;99746.72;5003308;28;20121;-73
2023/02/26 05:42:48;;;;;;;1.30;0.40;;;;;;;-2.03;100.00;99804.16;5000657;28;20036;-72
2023/02/26 05:45:14;;;;;;;14.48;1.25;;;;;;;-1.97;100.00;99869.16;5002369;28;20117;-73
2023/02/26 05:47:39;;;;;;;3.95;0.47;;;;;;;-1.86;100.00;99922.53;5011288;28;20140;-72
2023/02/26 05:50:05;;;;;;;3.15;0.90;;;;;;;-1.76;100.00;99944.50;5004574;28;20040;-72
2023/02/26 05:52:31;;;;;;;;;;;;;;;-1.71;100.00;99972.06;4993325;28;20042;-72
2023/02/26 05:54:56;;;;;;;1.58;0.55;;;;;;;-1.67;100.00;99971.84;5002346;28;19913;-73
2023/02/26 05:57:23;;;;;;;1.85;0.93;;;;;;;-1.58;100.00;100028.81;5008383;28;20038;-73
2023/02/26 05:59:48;;;;;;;1.35;0.20;;;;;;;-1.62;100.00;100009.84;4996722;28;20034;-73
2023/02/26 06:02:13;;;;;;;1.25;0.63;;;;;;;-1.54;100.00;100031.13;4996154;28;20100;-73
2023/02/26 06:04:39;;;;;;;5.50;1.75;;;;;;;-1.54;100.00;100011.97;5013824;28;20046;-72
2023/02/26 06:07:04;;;;;;;3.97;0.35;;;;;;;-1.56;100.00;99972.78;4999091;28;20038;-73
2023/02/26 06:09:29;;;;;;;6.70;1.73;;;;;;;-1.51;100.00;99964.63;5013602;28;20042;-73
2023/02/26 06:11:55;;;;;;;1.70;0.55;;;;;;;-1.46;100.00;99977.41;5016688;28;20033;-73
2023/02/26 06:14:20;;;;;;;1.90;0.40;;;;;;;-1.29;100.00;100032.94;5000393;28;20033;-72
2023/02/26 06:16:45;;;;;;;6.70;1.80;;;;;;;-1.31;100.00;99966.72;5002042;28;20038;-73
2023/02/26 06:19:11;;;;;;;2.58;0.50;;;;;;;-1.34;100.00;99938.09;5006989;28;20521;-72
2023/02/26 06:21:36;;;;;;;1.98;0.95;;;;;;;-1.30;100.00;99939.56;5011563;28;20480;-73
2023/02/26 06:24:02;;;;;;;4.80;0.40;;;;;;;-1.20;100.00;99907.50;5006012;28;20033;-73
2023/02/26 06:26:27;;;;;;;1.50;0.40;;;;;;;-1.17;100.00;99881.94;4999298;28;20057;-72
2023/02/26 06:28:52;;;;;;;3.97;0.40;;;;;;;-1.16;100.00;99854.81;4999706;28;20090;-72
2023/02/26 06:31:18;;;;;;;0.97;0.40;;;;;;;-1.17;100.00;99800.75;4999822;28;20085;-72
2023/02/26 06:33:43;;;;;;;5.75;0.57;;;;;;;-1.22;100.00;99729.50;4999090;28;20289;-73
2023/02/26 06:36:08;;;;;;;1.50;0.50;;;;;;;-1.21;100.00;99718.09;5000922;28;20038;-72
2023/02/26 06:38:34;;;;;;;0.88;0.60;;;;;;;-1.16;100.00;99750.03;4999035;28;20034;-73
2023/02/26 06:40:59;;;;;;;1.20;0.30;;;;;;;-1.13;100.00;99775.16;5015910;23;20228;-75
2023/02/26 06:43:24;;;;;;;4.97;0.32;;;;;;;-1.20;100.00;99737.25;5006781;28;20144;-74
2023/02/26 06:45:50;;;;;;;3.92;0.80;;;;;;;-1.23;100.00;99750.59;5005142;28;20495;-74
2023/02/26 06:48:15;;;;;;;1.02;0.50;;;;;;;-1.19;100.00;99801.81;5005306;28;20076;-76
2023/02/26 06:50:41;;;;;;;2.70;0.82;;;;;;;-1.12;100.00;99839.72;5003144;28;20030;-74
2023/02/26 06:53:06;;;;;;;2.50;0.70;;;;;;;-1.05;100.00;99764.97;4987670;28;20038;-72
2023/02/26 06:55:32;;;;;;;1.83;0.43;;;;;;;-0.97;100.00;99681.38;4992982;28;20050;-74
2023/02/26 06:57:58;;;;;;;3.72;0.85;;;;;;;-0.94;100.00;99597.28;4992714;28;20073;-73
2023/02/26 07:00:24;;;;;;;3.65;0.30;;;;;;;-0.88;100.00;99463.19;4991054;28;20129;-74
2023/02/26 07:02:50;;;;;;;5.60;0.52;;;;;;;-0.88;100.00;99371.47;4971991;28;20592;-72
2023/02/26 07:05:16;;;;;;;4.75;0.50;;;;;;;-0.69;100.00;99351.66;4976457;28;20042;-73
2023/02/26 07:07:42;;;;;;;;;;;;;;;-0.37;100.00;99348.19;4985804;28;20038;-73
2023/02/26 07:10:09;;;;;;;3.00;0.68;;;;;;;-0.14;98.99;99233.44;4987517;28;20448;-74
2023/02/26 07:12:34;;;;;;;1.85;0.95;;;;;;;0.09;97.06;99108.16;4985123;28;20034;-73
2023/02/26 07:15:00;;;;;;;2.60;0.20;;;;;;;0.41;95.25;98998.47;4985081;28;20033;-73
2023/02/26 07:17:25;;;;;;;1.02;0.35;;;;;;;0.51;93.80;98840.06;4986275;28;20042;-75
2023/02/26 07:19:51;;;;;;;2.37;0.30;;;;;;;0.70;92.98;98818.94;4992942;28;20034;-73
2023/02/26 07:22:17;;;;;;;;;;;;;;;0.83;92.44;98803.69;4987449;28;20828;-74
2023/02/26 07:24:43;;;;;;;3.25;0.47;;;;;;;1.03;91.65;98779.88;4986558;28;19920;-73
2023/02/26 07:27:09;;;;;;;1.45;0.30;;;;;;;1.29;91.20;98834.34;4970113;28;20026;-73
2023/02/26 07:29:35;;;;;;;2.53;0.45;;;;;;;1.56;90.61;98859.75;4969356;28;20038;-72
2023/02/26 07:32:00;;;;;;;2.22;0.38;;;;;;;1.60;89.27;98719.91;4986882;28;20447;-72
2023/02/26 07:34:26;;;;;;;0.55;0.20;;;;;;;1.72;88.15;98653.88;4987191;28;20557;-71
2023/02/26 07:36:51;;;;;;;0.95;0.38;;;;;;;1.89;88.31;98701.13;4969130;28;20046;-71
2023/02/26 07:39:17;;;;;;;1.63;0.40;;;;;;;2.11;87.63;98707.66;4990847;28;20394;-73
2023/02/26 07:41:42;;;;;;;11.00;1.23;;;;;;;2.01;86.91;98572.72;4990237;28;20314;-72
2023/02/26 07:44:13;;;;;;;1.77;1.20;;;;;;;2.17;86.83;98626.41;4985549;28;20102;-72
2023/02/26 07:46:38;;;;;;;0.70;0.27;;;;;;;2.44;86.71;98742.03;4990518;28;20037;-71
2023/02/26 07:49:03;;;;;;;1.70;0.33;;;;;;;2.69;86.11;98715.75;4985895;28;20042;-72
2023/02/26 07:51:29;;;;;;;3.40;0.43;;;;;;;3.08;85.70;98802.97;4983139;28;20676;-72
2023/02/26 07:53:54;;;;;;;2.83;0.60;;;;;;;3.27;84.71;98706.06;4968772;28;20388;-71
2023/02/26 07:56:19;;;;;;;0.90;0.40;;;;;;;3.15;83.78;98555.28;4985371;28;20038;-71
2023/02/26 07:58:45;;;;;;;3.17;0.70;;;;;;;3.30;83.18;98552.75;4968776;28;20060;-75
2023/02/26 08:01:10;;;;;;;2.17;0.40;;;;;;;3.94;83.02;98771.81;4984849;28;20168;-74
2023/02/26 08:03:36;;;;;;;1.63;0.87;;;;;;;4.41;82.18;98784.22;4985460;28;20073;-74
2023/02/26 08:06:01;;;;;;;3.42;0.68;;;;;;;4.73;80.89;98734.84;4990414;28;20058;-73
2023/02/26 08:08:27;;;;;;;4.90;1.98;;;;;;;5.01;80.11;98677.81;4987997;28;20089;-72
2023/02/26 08:10:53;;;;;;;5.82;0.60;;;;;;;5.11;77.86;98478.38;4986232;28;20118;-71
2023/02/26 08:13:18;;;;;;;3.03;1.37;;;;;;;5.01;77.36;98405.41;4988167;28;20038;-71
2023/02/26 08:15:43;;;;;;;4.13;1.00;;;;;;;4.91;77.00;98264.72;4968254;28;20081;-72
2023/02/26 08:18:10;;;;;;;1.13;0.47;;;;;;;4.28;76.02;97987.03;4968757;28;20034;-71
2023/02/26 08:20:36;;;;;;;6.53;0.68;;;;;;;4.05;77.23;98127.19;4968480;28;20034;-72
2023/02/26 08:23:01;;;;;;;1.15;0.50;;;;;;;4.74;77.73;98519.72;4968969;28;20418;-72
2023/02/26 08:25:27;;;;;;;1.05;0.55;;;;;;;5.10;76.23;98408.75;4984409;28;20041;-72
2023/02/26 08:27:52;;;;;;;0.37;0.30;;;;;;;5.28;74.38;98188.78;4968402;28;20611;-71
2023/02/26 08:30:18;;;;;;;0.30;0.22;;;;;;;5.98;74.77;98519.97;4968613;28;20039;-73
2023/02/26 08:32:44;;;;;;;1.38;0.40;;;;;;;5.97;73.69;98319.69;4997659;28;20038;-71
2023/02/26 08:35:10;;;;;;;1.48;0.40;;;;;;;5.78;72.22;98070.41;4984635;28;20196;-73
2023/02/26 08:37:37;;;;;;;0.80;0.30;;;;;;;5.43;72.50;98036.06;4985953;28;20101;-72
2023/02/26 08:40:03;;;;;;;1.83;0.57;;;;;;;5.95;72.63;98293.41;4986346;28;20030;-71
2023/02/26 08:42:29;;;;;;;1.63;0.68;;;;;;;6.19;71.71;98264.81;4988766;28;20435;-71
2023/02/26 08:44:54;;;;;;;2.57;0.50;;;;;;;6.08;70.76;98036.53;4989833;28;20072;-73
2023/02/26 08:47:19;;;;;;;3.13;0.30;;;;;;;6.66;70.62;98329.50;4972836;28;20042;-71
2023/02/26 08:49:45;;;;;;;0.70;0.30;;;;;;;6.84;69.83;98252.06;4983867;28;20092;-74
2023/02/26 08:52:10;;;;;;;2.10;1.03;;;;;;;6.37;69.49;98000.13;4985641;28;20048;-75
2023/02/26 08:54:35;;;;;;;1.50;0.30;;;;;;;5.85;69.72;97840.91;4988779;28;20081;-72
2023/02/26 08:57:02;;;;;;;3.10;0.60;;;;;;;5.98;71.11;98236.56;4989353;28;20399;-72
2023/02/26 08:59:27;;;;;;;1.30;0.45;;;;;;;7.06;70.28;98552.56;4984922;28;20514;-71
2023/02/26 09:01:53;;;;;;;0.98;0.52;;;;;;;7.01;68.82;98212.72;4952165;28;20014;-72
2023/02/26 09:04:18;;;;;;;2.37;0.30;;;;;;;7.56;67.98;98325.72;4988994;28;20037;-72
2023/02/26 09:06:44;;;;;;;1.13;0.40;;;;;;;8.51;68.33;98768.81;4988661;28;20487;-71
2023/02/26 09:09:09;;;;;;;1.98;0.82;;;;;;;8.76;67.35;98705.28;4991049;28;20037;-72
2023/02/26 09:11:35;;;;;;;1.90;0.68;;;;;;;8.36;66.37;98362.13;4988439;28;20088;-75
2023/02/26 09:14:02;;;;;;;5.65;2.05;;;;;;;8.76;66.08;98485.28;4993190;28;20038;-73
2023/02/26 09:16:28;;;;;;;2.45;1.23;;;;;;;9.24;64.01;98311.91;4968775;28;20038;-73
2023/02/26 09:18:55;;;;;;;1.48;0.43;;;;;;;7.89;63.32;97581.13;4971499;28;20056;-72
2023/02/26 09:21:21;;;;;;;2.97;0.45;;;;;;;8.34;64.21;98030.00;4992708;28;20074;-74
2023/02/26 09:23:46;;;;;;;2.78;0.63;;;;;;;8.64;63.65;98098.59;4951484;28;20061;-71
2023/02/26 09:26:11;;;;;;;2.10;0.50;;;;;;;8.37;63.44;97917.13;4990504;28;20034;-72
2023/02/26 09:28:37;;;;;;;2.90;0.87;;;;;;;9.38;62.94;98319.84;4971174;28;20049;-72
2023/02/26 09:31:02;;;;;;;0.80;0.40;;;;;;;9.35;62.24;98144.53;4990488;28;20042;-72
2023/02/26 09:33:28;;;;;;;1.08;0.40;;;;;;;8.73;61.05;97641.63;4951444;28;20339;-72
2023/02/26 09:35:53;;;;;;;1.70;0.57;;;;;;;8.54;61.32;97668.25;4984184;28;20042;-72
2023/02/26 09:38:19;;;;;;;2.27;0.50;;;;;;;8.77;62.10;97949.50;4973485;28;20119;-73
2023/02/26 09:41:08;;;;;;;3.63;1.40;;;;;;;8.99;62.26;98103.44;4987041;28;20510;-72
2023/02/26 09:44:06;;;;;;;3.30;1.10;;;;;;;8.72;61.66;97850.94;4989432;28;20121;-72
2023/02/26 09:47:01;;;;;;;11.40;3.90;;;;;;;9.26;62.60;98360.44;4984001;28;20328;-73
2023/02/26 09:49:39;;;;;;;4.15;0.75;;;;;;;8.77;61.86;97981.44;4973944;28;20514;-72
2023/02/26 09:52:20;;;;;;;2.70;0.43;;;;;;;8.32;62.70;97956.81;4989019;28;20034;-72
2023/02/26 09:54:51;;;;;;;1.48;0.80;;;;;;;7.10;64.85;97732.13;4971718;28;20049;-73
2023/02/26 09:57:35;;;;;;;7.75;1.35;;;;;;;6.58;66.36;98003.59;4989525;28;20042;-72
2023/02/26 10:00:06;;;;;;;2.13;0.70;;;;;;;5.86;66.42;97747.22;4982073;28;20026;-76
2023/02/26 10:02:49;;;;;;;4.32;0.70;;;;;;;5.28;68.62;97993.84;4988908;28;20034;-74
2023/02/26 10:05:59;;;;;;;1.88;0.73;;;;;;;4.98;70.21;98220.66;4961483;28;20042;-75
2023/02/26 10:08:32;;;;;;;1.98;0.60;;;;;;;5.19;71.33;98562.91;4884398;29;20045;-74
2023/02/26 10:11:07;;;;;;;6.43;1.10;;;;;;;4.92;72.23;98641.84;4891867;29;20549;-73
2023/02/26 10:13:47;;;;;;;4.22;1.85;;;;;;;4.52;72.39;98500.25;4886911;29;20060;-76
2023/02/26 10:16:17;;;;;;;2.55;1.00;;;;;;;4.18;73.58;98636.22;4889584;29;20041;-75
2023/02/26 10:18:48;;;;;;;4.78;2.22;;;;;;;4.48;74.71;98966.72;4871408;29;20048;-73
2023/02/26 10:21:19;;;;;;;3.97;0.93;;;;;;;4.37;75.03;98976.59;4871281;29;20048;-73
2023/02/26 10:23:57;;;;;;;3.72;0.45;;;;;;;4.32;75.19;99036.22;4871380;29;20196;-73
2023/02/26 10:26:28;;;;;;;8.02;1.77;;;;;;;4.03;76.08;99005.84;4882191;29;20049;-73
2023/02/26 10:29:10;;;;;;;5.50;0.90;;;;;;;4.37;76.52;99259.34;4855771;29;20061;-73
2023/02/26 10:31:53;;;;;;;4.95;0.90;;;;;;;4.43;76.83;99348.56;4873587;29;20585;-76
2023/02/26 10:34:37;;;;;;;3.22;0.70;;;;;;;4.32;77.65;99392.91;4874410;29;20123;-73
2023/02/26 10:37:31;;;;;;;2.65;0.57;;;;;;;3.92;77.35;99212.09;4878087;29;20037;-74
2023/02/26 10:40:30;;;;;;;3.03;0.73;;;;;;;3.98;77.69;99327.63;4863767;29;20116;-73
2023/02/26 10:42:57;;;;;;;1.45;0.65;;;;;;;4.33;78.20;99505.53;4880312;29;20065;-76
2023/02/26 10:45:32;;;;;;;5.32;0.90;;;;;;;4.67;78.35;99663.47;4958184;28;20041;-75
2023/02/26 10:48:22;;;;;;;5.88;1.00;;;;;;;5.13;78.70;99847.59;4982526;28;20036;-73
2023/02/26 10:50:52;;;;;;;4.25;1.13;;;;;;;5.55;78.71;99967.94;4987093;28;20038;-75
2023/02/26 10:53:19;;;;;;;5.50;2.00;;;;;;;5.38;78.04;99766.59;4988061;28;20022;-73
2023/02/26 10:56:15;;;;;;;3.65;0.60;;;;;;;4.48;77.62;99345.44;4970080;28;20529;-74
2023/02/26 10:58:41;;;;;;;4.10;1.25;;;;;;;3.55;78.97;99163.03;4986122;28;20106;-75
2023/02/26 11:01:14;;;;;;;4.30;0.60;;;;;;;3.98;81.22;99766.88;4972287;28;20547;-73
2023/02/26 11:03:43;;;;;;;4.55;1.15;;;;;;;4.09;82.29;99905.03;4972128;28;20038;-76
2023/02/26 11:06:13;;;;;;;6.25;1.35;;;;;;;4.09;82.57;99949.94;4970090;28;20022;-74
2023/02/26 11:08:42;;;;;;;3.33;1.00;;;;;;;3.76;82.85;99826.13;4967895;28;20090;-73
2023/02/26 11:11:08;;;;;;;3.65;0.80;;;;;;;4.68;83.44;100324.34;4986070;28;20108;-73
2023/02/26 11:13:36;;;;;;;2.35;0.80;;;;;;;6.46;82.16;100729.78;4986366;28;20674;-72
2023/02/26 11:16:09;;;;;;;2.45;1.17;;;;;;;7.81;79.40;100634.16;4986141;28;20042;-75
2023/02/26 11:18:42;;;;;;;2.00;0.73;;;;;;;7.12;76.60;99878.78;4969789;28;20035;-77
2023/02/26 11:21:15;;;;;;;5.20;1.13;;;;;;;6.30;75.55;99396.78;4986947;28;20050;-74
2023/02/26 11:23:42;;;;;;;3.30;1.02;;;;;;;5.91;76.18;99399.25;4986077;28;20038;-74
2023/02/26 11:26:16;;;;;;;3.10;1.10;;;;;;;5.74;75.97;99352.56;4969759;28;20052;-73
2023/02/26 11:28:44;;;;;;;4.07;0.80;;;;;;;5.62;76.92;99445.56;4969516;28;20034;-74
2023/02/26 11:31:13;;;;;;;5.05;1.17;;;;;;;4.58;78.22;99227.19;4995258;28;20060;-76
2023/02/26 11:33:44;;;;;;;6.15;1.30;;;;;;;4.57;80.03;99547.22;4970567;28;20030;-75
2023/02/26 11:36:18;;;;;;;2.63;0.70;;;;;;;4.18;80.07;99494.69;4974055;28;20562;-75
2023/02/26 11:38:46;;;;;;;1.77;0.77;;;;;;;4.02;81.41;99604.47;4990539;28;20049;-73
2023/02/26 11:41:12;;;;;;;12.05;1.90;;;;;;;5.99;80.74;100357.59;4968688;28;20038;-74
2023/02/26 11:43:43;;;;;;;4.70;0.88;;;;;;;6.71;77.30;100038.59;4985100;28;20101;-73
2023/02/26 11:46:10;;;;;;;7.32;1.70;;;;;;;5.91;76.04;99434.50;4985404;28;20034;-76
2023/02/26 11:48:46;;;;;;;4.82;1.20;;;;;;;5.76;76.79;99544.75;4985240;28;20035;-74